sensor_id;sensor_type;location;lat;lon;timestamp;P1;durP1;ratioP1;P2;durP2;ratioP2
26536;SDS011;14204;51.262;5.488;2024-02-04T00:00:30;17.80;;;12.27;;
26536;SDS011;14204;51.262;5.488;2024-02-04T00:02:56;21.27;;;11.73;;
26536;SDS011;14204;51.262;5.488;2024-02-04T00:05:21;18.25;;;12.35;;
26536;SDS011;14204;51.262;5.488;2024-02-04T00:07:47;18.35;;;11.60;;
26536;SDS011;14204;51.262;5.488;2024-02-04T00:10:13;20.75;;;13.02;;
26536;SDS011;14204;51.262;5.488;2024-02-04T00:12:41;20.05;;;12.80;;
26536;SDS011;14204;51.262;5.488;2024-02-04T00:15:07;19.05;;;12.93;;
26536;SDS011;14204;51.262;5.488;2024-02-04T00:17:33;18.58;;;12.43;;
26536;SDS011;14204;51.262;5.488;2024-02-04T00:20:02;20.42;;;13.32;;
26536;SDS011;14204;51.262;5.488;2024-02-04T00:22:30;21.88;;;14.50;;
26536;SDS011;14204;51.262;5.488;2024-02-04T00:24:58;21.38;;;14.07;;
26536;SDS011;14204;51.262;5.488;2024-02-04T00:27:29;22.33;;;14.18;;
26536;SDS011;14204;51.262;5.488;2024-02-04T00:29:56;22.90;;;15.15;;
26536;SDS011;14204;51.262;5.488;2024-02-04T00:32:22;18.48;;;12.68;;
26536;SDS011;14204;51.262;5.488;2024-02-04T00:34:54;20.63;;;12.80;;
26536;SDS011;14204;51.262;5.488;2024-02-04T00:37:19;17.83;;;13.80;;
26536;SDS011;14204;51.262;5.488;2024-02-04T00:39:45;19.65;;;13.40;;
26536;SDS011;14204;51.262;5.488;2024-02-04T00:42:11;22.38;;;12.70;;
26536;SDS011;14204;51.262;5.488;2024-02-04T00:44:37;21.83;;;14.18;;
26536;SDS011;14204;51.262;5.488;2024-02-04T00:47:02;24.30;;;14.07;;
26536;SDS011;14204;51.262;5.488;2024-02-04T00:49:28;20.90;;;14.82;;
26536;SDS011;14204;51.262;5.488;2024-02-04T00:51:54;22.52;;;14.68;;
26536;SDS011;14204;51.262;5.488;2024-02-04T00:54:19;21.17;;;15.05;;
26536;SDS011;14204;51.262;5.488;2024-02-04T00:56:45;23.20;;;16.02;;
26536;SDS011;14204;51.262;5.488;2024-02-04T00:59:11;19.90;;;14.15;;
26536;SDS011;14204;51.262;5.488;2024-02-04T01:01:37;21.50;;;14.20;;
26536;SDS011;14204;51.262;5.488;2024-02-04T01:04:03;19.75;;;13.23;;
26536;SDS011;14204;51.262;5.488;2024-02-04T01:06:29;19.30;;;13.35;;
26536;SDS011;14204;51.262;5.488;2024-02-04T01:08:58;19.92;;;13.95;;
26536;SDS011;14204;51.262;5.488;2024-02-04T01:11:24;20.40;;;13.30;;
26536;SDS011;14204;51.262;5.488;2024-02-04T01:13:49;21.35;;;13.43;;
26536;SDS011;14204;51.262;5.488;2024-02-04T01:16:15;20.23;;;13.98;;
26536;SDS011;14204;51.262;5.488;2024-02-04T01:18:41;22.45;;;14.05;;
26536;SDS011;14204;51.262;5.488;2024-02-04T01:21:07;25.13;;;15.10;;
26536;SDS011;14204;51.262;5.488;2024-02-04T01:23:34;21.20;;;13.57;;
26536;SDS011;14204;51.262;5.488;2024-02-04T01:26:00;23.48;;;14.95;;
26536;SDS011;14204;51.262;5.488;2024-02-04T01:28:25;23.52;;;14.90;;
26536;SDS011;14204;51.262;5.488;2024-02-04T01:30:51;26.58;;;15.50;;
26536;SDS011;14204;51.262;5.488;2024-02-04T01:33:17;23.73;;;15.98;;
26536;SDS011;14204;51.262;5.488;2024-02-04T01:35:43;26.65;;;14.57;;
26536;SDS011;14204;51.262;5.488;2024-02-04T01:38:08;26.25;;;14.38;;
26536;SDS011;14204;51.262;5.488;2024-02-04T01:40:34;25.75;;;14.82;;
26536;SDS011;14204;51.262;5.488;2024-02-04T01:43:01;26.55;;;16.15;;
26536;SDS011;14204;51.262;5.488;2024-02-04T01:45:26;21.02;;;14.10;;
26536;SDS011;14204;51.262;5.488;2024-02-04T01:47:53;23.45;;;14.77;;
26536;SDS011;14204;51.262;5.488;2024-02-04T01:50:19;25.25;;;15.45;;
26536;SDS011;14204;51.262;5.488;2024-02-04T01:52:45;24.42;;;15.13;;
26536;SDS011;14204;51.262;5.488;2024-02-04T01:55:12;25.20;;;15.43;;
26536;SDS011;14204;51.262;5.488;2024-02-04T01:57:38;29.42;;;16.98;;
26536;SDS011;14204;51.262;5.488;2024-02-04T02:00:05;29.30;;;16.63;;
26536;SDS011;14204;51.262;5.488;2024-02-04T02:02:32;30.27;;;16.38;;
26536;SDS011;14204;51.262;5.488;2024-02-04T02:04:59;33.33;;;18.25;;
26536;SDS011;14204;51.262;5.488;2024-02-04T02:07:25;33.38;;;19.83;;
26536;SDS011;14204;51.262;5.488;2024-02-04T02:09:52;39.45;;;22.55;;
26536;SDS011;14204;51.262;5.488;2024-02-04T02:12:30;35.85;;;21.52;;
26536;SDS011;14204;51.262;5.488;2024-02-04T02:15:09;40.20;;;23.42;;
26536;SDS011;14204;51.262;5.488;2024-02-04T02:17:48;46.63;;;24.98;;
26536;SDS011;14204;51.262;5.488;2024-02-04T02:20:29;48.45;;;27.05;;
26536;SDS011;14204;51.262;5.488;2024-02-04T02:23:07;53.65;;;28.48;;
26536;SDS011;14204;51.262;5.488;2024-02-04T02:25:36;48.45;;;26.58;;
26536;SDS011;14204;51.262;5.488;2024-02-04T02:28:03;54.78;;;28.52;;
26536;SDS011;14204;51.262;5.488;2024-02-04T02:30:29;49.88;;;29.20;;
26536;SDS011;14204;51.262;5.488;2024-02-04T02:32:55;58.20;;;30.27;;
26536;SDS011;14204;51.262;5.488;2024-02-04T02:35:22;63.58;;;31.55;;
26536;SDS011;14204;51.262;5.488;2024-02-04T02:40:39;57.65;;;31.75;;
26536;SDS011;14204;51.262;5.488;2024-02-04T02:43:10;60.58;;;30.65;;
26536;SDS011;14204;51.262;5.488;2024-02-04T02:45:37;62.15;;;34.55;;
26536;SDS011;14204;51.262;5.488;2024-02-04T02:50:57;69.43;;;35.33;;
26536;SDS011;14204;51.262;5.488;2024-02-04T02:53:23;68.00;;;34.45;;
26536;SDS011;14204;51.262;5.488;2024-02-04T02:55:49;71.80;;;35.45;;
26536;SDS011;14204;51.262;5.488;2024-02-04T02:58:14;73.93;;;37.67;;
26536;SDS011;14204;51.262;5.488;2024-02-04T03:00:40;73.63;;;38.42;;
26536;SDS011;14204;51.262;5.488;2024-02-04T03:03:06;70.32;;;37.30;;
26536;SDS011;14204;51.262;5.488;2024-02-04T03:05:31;71.60;;;35.88;;
26536;SDS011;14204;51.262;5.488;2024-02-04T03:07:58;65.07;;;35.25;;
26536;SDS011;14204;51.262;5.488;2024-02-04T03:10:24;62.60;;;35.40;;
26536;SDS011;14204;51.262;5.488;2024-02-04T03:12:49;69.28;;;38.83;;
26536;SDS011;14204;51.262;5.488;2024-02-04T03:15:15;69.60;;;36.72;;
26536;SDS011;14204;51.262;5.488;2024-02-04T03:17:42;74.47;;;38.92;;
26536;SDS011;14204;51.262;5.488;2024-02-04T03:20:08;75.75;;;40.22;;
26536;SDS011;14204;51.262;5.488;2024-02-04T03:22:35;72.22;;;36.83;;
26536;SDS011;14204;51.262;5.488;2024-02-04T03:25:00;78.45;;;39.15;;
26536;SDS011;14204;51.262;5.488;2024-02-04T03:27:26;79.60;;;39.97;;
26536;SDS011;14204;51.262;5.488;2024-02-04T03:29:52;67.32;;;37.08;;
26536;SDS011;14204;51.262;5.488;2024-02-04T03:32:18;74.93;;;37.67;;
26536;SDS011;14204;51.262;5.488;2024-02-04T03:34:43;76.35;;;38.20;;
26536;SDS011;14204;51.262;5.488;2024-02-04T03:37:09;76.80;;;39.30;;
26536;SDS011;14204;51.262;5.488;2024-02-04T03:39:35;65.43;;;36.53;;
26536;SDS011;14204;51.262;5.488;2024-02-04T03:42:01;68.82;;;36.25;;
26536;SDS011;14204;51.262;5.488;2024-02-04T03:44:26;65.55;;;36.08;;
26536;SDS011;14204;51.262;5.488;2024-02-04T03:46:52;68.63;;;35.38;;
26536;SDS011;14204;51.262;5.488;2024-02-04T03:49:18;59.47;;;32.88;;
26536;SDS011;14204;51.262;5.488;2024-02-04T03:51:44;67.93;;;35.95;;
26536;SDS011;14204;51.262;5.488;2024-02-04T03:54:11;69.22;;;35.80;;
26536;SDS011;14204;51.262;5.488;2024-02-04T03:56:36;65.63;;;33.85;;
26536;SDS011;14204;51.262;5.488;2024-02-04T03:59:02;67.90;;;36.03;;
26536;SDS011;14204;51.262;5.488;2024-02-04T04:01:28;61.47;;;33.05;;
26536;SDS011;14204;51.262;5.488;2024-02-04T04:03:54;71.40;;;35.08;;
26536;SDS011;14204;51.262;5.488;2024-02-04T04:06:19;63.88;;;33.85;;
26536;SDS011;14204;51.262;5.488;2024-02-04T04:08:45;69.40;;;34.28;;
26536;SDS011;14204;51.262;5.488;2024-02-04T04:11:11;76.90;;;35.00;;
26536;SDS011;14204;51.262;5.488;2024-02-04T04:13:37;60.45;;;32.75;;
26536;SDS011;14204;51.262;5.488;2024-02-04T04:16:03;64.78;;;34.92;;
26536;SDS011;14204;51.262;5.488;2024-02-04T04:18:29;68.45;;;32.67;;
26536;SDS011;14204;51.262;5.488;2024-02-04T04:20:55;69.80;;;31.77;;
26536;SDS011;14204;51.262;5.488;2024-02-04T04:23:21;60.75;;;31.58;;
26536;SDS011;14204;51.262;5.488;2024-02-04T04:25:47;75.97;;;33.63;;
26536;SDS011;14204;51.262;5.488;2024-02-04T04:28:12;68.50;;;33.65;;
26536;SDS011;14204;51.262;5.488;2024-02-04T04:30:38;66.15;;;31.80;;
26536;SDS011;14204;51.262;5.488;2024-02-04T04:33:04;69.15;;;31.70;;
26536;SDS011;14204;51.262;5.488;2024-02-04T04:35:31;68.10;;;31.30;;
26536;SDS011;14204;51.262;5.488;2024-02-04T04:37:57;62.70;;;31.25;;
26536;SDS011;14204;51.262;5.488;2024-02-04T04:40:23;65.75;;;30.67;;
26536;SDS011;14204;51.262;5.488;2024-02-04T04:42:48;60.97;;;31.10;;
26536;SDS011;14204;51.262;5.488;2024-02-04T04:45:14;67.00;;;31.63;;
26536;SDS011;14204;51.262;5.488;2024-02-04T04:47:40;56.55;;;29.90;;
26536;SDS011;14204;51.262;5.488;2024-02-04T04:50:06;61.78;;;29.83;;
26536;SDS011;14204;51.262;5.488;2024-02-04T04:52:32;54.90;;;27.67;;
26536;SDS011;14204;51.262;5.488;2024-02-04T04:54:58;66.68;;;31.58;;
26536;SDS011;14204;51.262;5.488;2024-02-04T04:57:24;59.60;;;29.25;;
26536;SDS011;14204;51.262;5.488;2024-02-04T04:59:49;61.28;;;27.85;;
26536;SDS011;14204;51.262;5.488;2024-02-04T05:02:16;54.10;;;27.38;;
26536;SDS011;14204;51.262;5.488;2024-02-04T05:04:42;62.05;;;29.20;;
26536;SDS011;14204;51.262;5.488;2024-02-04T05:07:09;57.78;;;29.55;;
26536;SDS011;14204;51.262;5.488;2024-02-04T05:09:35;61.95;;;28.58;;
26536;SDS011;14204;51.262;5.488;2024-02-04T05:12:02;55.70;;;27.23;;
26536;SDS011;14204;51.262;5.488;2024-02-04T05:14:28;49.53;;;26.48;;
26536;SDS011;14204;51.262;5.488;2024-02-04T05:16:54;66.28;;;28.73;;
26536;SDS011;14204;51.262;5.488;2024-02-04T05:19:20;54.22;;;25.92;;
26536;SDS011;14204;51.262;5.488;2024-02-04T05:21:46;50.00;;;25.63;;
26536;SDS011;14204;51.262;5.488;2024-02-04T05:24:11;53.53;;;26.08;;
26536;SDS011;14204;51.262;5.488;2024-02-04T05:26:37;52.33;;;24.75;;
26536;SDS011;14204;51.262;5.488;2024-02-04T05:29:03;49.92;;;25.35;;
26536;SDS011;14204;51.262;5.488;2024-02-04T05:31:28;45.85;;;24.33;;
26536;SDS011;14204;51.262;5.488;2024-02-04T05:33:55;40.30;;;23.38;;
26536;SDS011;14204;51.262;5.488;2024-02-04T05:36:21;34.80;;;20.45;;
26536;SDS011;14204;51.262;5.488;2024-02-04T05:38:47;39.63;;;21.90;;
26536;SDS011;14204;51.262;5.488;2024-02-04T05:41:12;33.08;;;20.40;;
26536;SDS011;14204;51.262;5.488;2024-02-04T05:43:38;38.72;;;21.38;;
26536;SDS011;14204;51.262;5.488;2024-02-04T05:46:04;38.90;;;20.13;;
26536;SDS011;14204;51.262;5.488;2024-02-04T05:48:30;36.83;;;19.33;;
26536;SDS011;14204;51.262;5.488;2024-02-04T05:50:55;35.35;;;20.45;;
26536;SDS011;14204;51.262;5.488;2024-02-04T05:53:21;39.85;;;22.58;;
26536;SDS011;14204;51.262;5.488;2024-02-04T05:55:47;37.67;;;21.25;;
26536;SDS011;14204;51.262;5.488;2024-02-04T05:58:13;38.85;;;20.85;;
26536;SDS011;14204;51.262;5.488;2024-02-04T06:00:39;40.00;;;20.60;;
26536;SDS011;14204;51.262;5.488;2024-02-04T06:03:05;32.92;;;19.27;;
26536;SDS011;14204;51.262;5.488;2024-02-04T06:05:32;34.65;;;20.52;;
26536;SDS011;14204;51.262;5.488;2024-02-04T06:07:57;38.28;;;19.75;;
26536;SDS011;14204;51.262;5.488;2024-02-04T06:10:23;34.85;;;19.67;;
26536;SDS011;14204;51.262;5.488;2024-02-04T06:12:49;31.13;;;19.05;;
26536;SDS011;14204;51.262;5.488;2024-02-04T06:15:15;34.45;;;20.90;;
26536;SDS011;14204;51.262;5.488;2024-02-04T06:17:41;29.73;;;18.13;;
26536;SDS011;14204;51.262;5.488;2024-02-04T06:20:07;39.13;;;19.52;;
26536;SDS011;14204;51.262;5.488;2024-02-04T06:22:34;33.83;;;18.27;;
26536;SDS011;14204;51.262;5.488;2024-02-04T06:25:00;37.65;;;19.73;;
26536;SDS011;14204;51.262;5.488;2024-02-04T06:27:27;31.42;;;17.85;;
26536;SDS011;14204;51.262;5.488;2024-02-04T06:29:52;32.35;;;18.50;;
26536;SDS011;14204;51.262;5.488;2024-02-04T06:32:18;35.17;;;19.60;;
26536;SDS011;14204;51.262;5.488;2024-02-04T06:34:47;34.55;;;18.60;;
26536;SDS011;14204;51.262;5.488;2024-02-04T06:37:12;38.92;;;19.73;;
26536;SDS011;14204;51.262;5.488;2024-02-04T06:39:38;33.33;;;18.63;;
26536;SDS011;14204;51.262;5.488;2024-02-04T06:42:04;34.78;;;19.40;;
26536;SDS011;14204;51.262;5.488;2024-02-04T06:44:30;37.38;;;17.65;;
26536;SDS011;14204;51.262;5.488;2024-02-04T06:46:56;36.22;;;18.23;;
26536;SDS011;14204;51.262;5.488;2024-02-04T06:49:21;33.40;;;19.05;;
26536;SDS011;14204;51.262;5.488;2024-02-04T06:51:47;36.63;;;19.35;;
26536;SDS011;14204;51.262;5.488;2024-02-04T06:54:15;33.08;;;18.63;;
26536;SDS011;14204;51.262;5.488;2024-02-04T06:56:41;35.72;;;18.50;;
26536;SDS011;14204;51.262;5.488;2024-02-04T06:59:07;34.17;;;19.67;;
26536;SDS011;14204;51.262;5.488;2024-02-04T07:01:32;34.08;;;19.35;;
26536;SDS011;14204;51.262;5.488;2024-02-04T07:03:58;40.30;;;20.42;;
26536;SDS011;14204;51.262;5.488;2024-02-04T07:06:24;33.60;;;19.73;;
26536;SDS011;14204;51.262;5.488;2024-02-04T07:08:50;41.55;;;20.83;;
26536;SDS011;14204;51.262;5.488;2024-02-04T07:11:16;32.83;;;19.30;;
26536;SDS011;14204;51.262;5.488;2024-02-04T07:13:42;35.63;;;19.25;;
26536;SDS011;14204;51.262;5.488;2024-02-04T07:16:07;33.13;;;17.98;;
26536;SDS011;14204;51.262;5.488;2024-02-04T07:18:33;28.48;;;16.85;;
26536;SDS011;14204;51.262;5.488;2024-02-04T07:20:59;29.38;;;17.52;;
26536;SDS011;14204;51.262;5.488;2024-02-04T07:23:25;30.20;;;16.63;;
26536;SDS011;14204;51.262;5.488;2024-02-04T07:25:51;24.17;;;14.90;;
26536;SDS011;14204;51.262;5.488;2024-02-04T07:28:16;26.05;;;15.10;;
26536;SDS011;14204;51.262;5.488;2024-02-04T07:30:42;26.65;;;14.32;;
26536;SDS011;14204;51.262;5.488;2024-02-04T07:33:07;30.13;;;15.02;;
26536;SDS011;14204;51.262;5.488;2024-02-04T07:35:33;31.25;;;14.75;;
26536;SDS011;14204;51.262;5.488;2024-02-04T07:37:59;30.23;;;14.88;;
26536;SDS011;14204;51.262;5.488;2024-02-04T07:40:25;30.10;;;14.93;;
26536;SDS011;14204;51.262;5.488;2024-02-04T07:42:52;32.75;;;15.60;;
26536;SDS011;14204;51.262;5.488;2024-02-04T07:45:19;26.20;;;13.93;;
26536;SDS011;14204;51.262;5.488;2024-02-04T07:47:45;28.15;;;13.68;;
26536;SDS011;14204;51.262;5.488;2024-02-04T07:50:11;27.42;;;13.88;;
26536;SDS011;14204;51.262;5.488;2024-02-04T07:52:37;28.25;;;14.50;;
26536;SDS011;14204;51.262;5.488;2024-02-04T07:55:03;23.92;;;12.63;;
26536;SDS011;14204;51.262;5.488;2024-02-04T07:57:29;25.80;;;14.00;;
26536;SDS011;14204;51.262;5.488;2024-02-04T07:59:55;23.48;;;12.25;;
26536;SDS011;14204;51.262;5.488;2024-02-04T08:02:20;26.70;;;14.52;;
26536;SDS011;14204;51.262;5.488;2024-02-04T08:04:46;25.17;;;14.40;;
26536;SDS011;14204;51.262;5.488;2024-02-04T08:07:12;25.40;;;14.05;;
26536;SDS011;14204;51.262;5.488;2024-02-04T08:09:38;29.65;;;13.63;;
26536;SDS011;14204;51.262;5.488;2024-02-04T08:12:04;30.35;;;15.18;;
26536;SDS011;14204;51.262;5.488;2024-02-04T08:14:29;24.83;;;13.60;;
26536;SDS011;14204;51.262;5.488;2024-02-04T08:16:55;25.20;;;14.20;;
26536;SDS011;14204;51.262;5.488;2024-02-04T08:19:21;22.42;;;14.80;;
26536;SDS011;14204;51.262;5.488;2024-02-04T08:21:46;24.95;;;13.88;;
26536;SDS011;14204;51.262;5.488;2024-02-04T08:24:12;24.70;;;13.65;;
26536;SDS011;14204;51.262;5.488;2024-02-04T08:26:38;25.40;;;13.80;;
26536;SDS011;14204;51.262;5.488;2024-02-04T08:29:04;21.90;;;13.00;;
26536;SDS011;14204;51.262;5.488;2024-02-04T08:31:31;24.90;;;13.57;;
26536;SDS011;14204;51.262;5.488;2024-02-04T08:33:58;26.45;;;13.65;;
26536;SDS011;14204;51.262;5.488;2024-02-04T08:36:24;25.52;;;13.57;;
26536;SDS011;14204;51.262;5.488;2024-02-04T08:38:50;23.17;;;14.48;;
26536;SDS011;14204;51.262;5.488;2024-02-04T08:41:16;24.70;;;12.82;;
26536;SDS011;14204;51.262;5.488;2024-02-04T08:43:41;20.73;;;12.93;;
26536;SDS011;14204;51.262;5.488;2024-02-04T08:46:07;25.67;;;13.93;;
26536;SDS011;14204;51.262;5.488;2024-02-04T08:48:33;24.33;;;14.10;;
26536;SDS011;14204;51.262;5.488;2024-02-04T08:50:59;22.88;;;13.40;;
26536;SDS011;14204;51.262;5.488;2024-02-04T08:53:25;23.80;;;13.30;;
26536;SDS011;14204;51.262;5.488;2024-02-04T08:55:50;22.40;;;13.45;;
26536;SDS011;14204;51.262;5.488;2024-02-04T08:58:16;22.77;;;14.23;;
26536;SDS011;14204;51.262;5.488;2024-02-04T09:00:41;22.75;;;13.95;;
26536;SDS011;14204;51.262;5.488;2024-02-04T09:03:07;23.15;;;13.25;;
26536;SDS011;14204;51.262;5.488;2024-02-04T09:05:33;21.67;;;14.52;;
26536;SDS011;14204;51.262;5.488;2024-02-04T09:07:59;17.95;;;12.38;;
26536;SDS011;14204;51.262;5.488;2024-02-04T09:10:26;21.38;;;13.43;;
26536;SDS011;14204;51.262;5.488;2024-02-04T09:12:52;24.00;;;14.00;;
26536;SDS011;14204;51.262;5.488;2024-02-04T09:15:18;25.48;;;15.48;;
26536;SDS011;14204;51.262;5.488;2024-02-04T09:17:43;24.08;;;14.60;;
26536;SDS011;14204;51.262;5.488;2024-02-04T09:20:09;30.45;;;15.05;;
26536;SDS011;14204;51.262;5.488;2024-02-04T09:22:35;26.20;;;14.13;;
26536;SDS011;14204;51.262;5.488;2024-02-04T09:25:01;24.08;;;14.93;;
26536;SDS011;14204;51.262;5.488;2024-02-04T09:27:27;23.50;;;13.70;;
26536;SDS011;14204;51.262;5.488;2024-02-04T09:29:53;31.42;;;15.05;;
26536;SDS011;14204;51.262;5.488;2024-02-04T09:32:20;28.35;;;14.48;;
26536;SDS011;14204;51.262;5.488;2024-02-04T09:34:45;27.50;;;15.35;;
26536;SDS011;14204;51.262;5.488;2024-02-04T09:37:11;31.42;;;16.77;;
26536;SDS011;14204;51.262;5.488;2024-02-04T09:39:37;24.80;;;13.20;;
26536;SDS011;14204;51.262;5.488;2024-02-04T09:42:03;22.75;;;13.65;;
26536;SDS011;14204;51.262;5.488;2024-02-04T09:44:29;40.25;;;23.48;;
26536;SDS011;14204;51.262;5.488;2024-02-04T09:46:57;22.05;;;12.20;;
26536;SDS011;14204;51.262;5.488;2024-02-04T09:49:25;22.10;;;13.07;;
26536;SDS011;14204;51.262;5.488;2024-02-04T09:51:52;28.63;;;13.30;;
26536;SDS011;14204;51.262;5.488;2024-02-04T09:54:18;22.00;;;12.32;;
26536;SDS011;14204;51.262;5.488;2024-02-04T09:56:46;21.00;;;11.98;;
26536;SDS011;14204;51.262;5.488;2024-02-04T09:59:12;19.60;;;10.82;;
26536;SDS011;14204;51.262;5.488;2024-02-04T10:01:38;22.90;;;10.80;;
26536;SDS011;14204;51.262;5.488;2024-02-04T10:04:05;20.85;;;11.10;;
26536;SDS011;14204;51.262;5.488;2024-02-04T10:06:30;17.25;;;9.55;;
26536;SDS011;14204;51.262;5.488;2024-02-04T10:08:56;18.70;;;10.20;;
26536;SDS011;14204;51.262;5.488;2024-02-04T10:11:23;18.70;;;11.30;;
26536;SDS011;14204;51.262;5.488;2024-02-04T10:13:49;17.98;;;9.95;;
26536;SDS011;14204;51.262;5.488;2024-02-04T10:16:15;21.80;;;10.77;;
26536;SDS011;14204;51.262;5.488;2024-02-04T10:18:42;22.77;;;11.00;;
26536;SDS011;14204;51.262;5.488;2024-02-04T10:21:18;20.20;;;12.65;;
26536;SDS011;14204;51.262;5.488;2024-02-04T10:23:45;19.38;;;11.38;;
26536;SDS011;14204;51.262;5.488;2024-02-04T10:26:15;20.15;;;11.80;;
26536;SDS011;14204;51.262;5.488;2024-02-04T10:28:42;21.88;;;11.90;;
26536;SDS011;14204;51.262;5.488;2024-02-04T10:31:09;19.80;;;12.15;;
26536;SDS011;14204;51.262;5.488;2024-02-04T10:33:36;22.00;;;12.15;;
26536;SDS011;14204;51.262;5.488;2024-02-04T10:36:02;22.65;;;12.98;;
26536;SDS011;14204;51.262;5.488;2024-02-04T10:38:29;20.92;;;11.10;;
26536;SDS011;14204;51.262;5.488;2024-02-04T10:40:55;22.23;;;13.07;;
26536;SDS011;14204;51.262;5.488;2024-02-04T10:43:24;25.80;;;14.65;;
26536;SDS011;14204;51.262;5.488;2024-02-04T10:45:55;22.95;;;13.18;;
26536;SDS011;14204;51.262;5.488;2024-02-04T10:51:14;20.23;;;11.85;;
26536;SDS011;14204;51.262;5.488;2024-02-04T10:53:43;19.58;;;12.10;;
26536;SDS011;14204;51.262;5.488;2024-02-04T10:56:16;20.25;;;11.63;;
26536;SDS011;14204;51.262;5.488;2024-02-04T10:58:50;24.08;;;11.52;;
26536;SDS011;14204;51.262;5.488;2024-02-04T11:01:17;30.77;;;12.50;;
26536;SDS011;14204;51.262;5.488;2024-02-04T11:03:43;21.17;;;12.82;;
26536;SDS011;14204;51.262;5.488;2024-02-04T11:06:11;25.50;;;13.07;;
26536;SDS011;14204;51.262;5.488;2024-02-04T11:08:38;26.23;;;12.15;;
26536;SDS011;14204;51.262;5.488;2024-02-04T11:11:04;24.60;;;12.35;;
26536;SDS011;14204;51.262;5.488;2024-02-04T11:13:30;21.88;;;11.68;;
26536;SDS011;14204;51.262;5.488;2024-02-04T11:15:57;20.52;;;12.02;;
26536;SDS011;14204;51.262;5.488;2024-02-04T11:26:52;27.63;;;12.60;;
26536;SDS011;14204;51.262;5.488;2024-02-04T11:29:18;25.15;;;12.57;;
26536;SDS011;14204;51.262;5.488;2024-02-04T11:31:44;21.38;;;10.90;;
26536;SDS011;14204;51.262;5.488;2024-02-04T11:34:10;21.40;;;11.25;;
26536;SDS011;14204;51.262;5.488;2024-02-04T11:36:39;20.90;;;11.93;;
26536;SDS011;14204;51.262;5.488;2024-02-04T11:39:17;25.13;;;12.13;;
26536;SDS011;14204;51.262;5.488;2024-02-04T11:41:49;22.10;;;11.63;;
26536;SDS011;14204;51.262;5.488;2024-02-04T11:44:25;27.25;;;12.43;;
26536;SDS011;14204;51.262;5.488;2024-02-04T11:46:51;19.80;;;10.43;;
26536;SDS011;14204;51.262;5.488;2024-02-04T11:49:23;20.58;;;10.55;;
26536;SDS011;14204;51.262;5.488;2024-02-04T11:51:50;15.60;;;10.25;;
26536;SDS011;14204;51.262;5.488;2024-02-04T11:54:17;17.25;;;9.23;;
26536;SDS011;14204;51.262;5.488;2024-02-04T11:56:50;20.65;;;8.85;;
26536;SDS011;14204;51.262;5.488;2024-02-04T11:59:20;16.95;;;9.00;;
26536;SDS011;14204;51.262;5.488;2024-02-04T12:01:47;19.15;;;8.63;;
26536;SDS011;14204;51.262;5.488;2024-02-04T12:04:15;16.38;;;8.45;;
26536;SDS011;14204;51.262;5.488;2024-02-04T12:06:41;16.02;;;8.70;;
26536;SDS011;14204;51.262;5.488;2024-02-04T12:09:08;16.83;;;8.85;;
26536;SDS011;14204;51.262;5.488;2024-02-04T12:11:38;23.83;;;7.90;;
26536;SDS011;14204;51.262;5.488;2024-02-04T12:14:04;12.98;;;7.35;;
26536;SDS011;14204;51.262;5.488;2024-02-04T12:16:32;18.25;;;7.18;;
26536;SDS011;14204;51.262;5.488;2024-02-04T12:19:00;18.23;;;7.82;;
26536;SDS011;14204;51.262;5.488;2024-02-04T12:21:28;17.98;;;7.97;;
26536;SDS011;14204;51.262;5.488;2024-02-04T12:23:54;14.32;;;7.82;;
26536;SDS011;14204;51.262;5.488;2024-02-04T12:26:21;14.45;;;6.90;;
26536;SDS011;14204;51.262;5.488;2024-02-04T12:28:48;13.65;;;6.55;;
26536;SDS011;14204;51.262;5.488;2024-02-04T12:31:18;12.88;;;7.15;;
26536;SDS011;14204;51.262;5.488;2024-02-04T12:33:55;12.80;;;6.80;;
26536;SDS011;14204;51.262;5.488;2024-02-04T12:36:28;12.25;;;6.03;;
26536;SDS011;14204;51.262;5.488;2024-02-04T12:38:55;11.63;;;6.80;;
26536;SDS011;14204;51.262;5.488;2024-02-04T12:41:22;10.20;;;6.22;;
26536;SDS011;14204;51.262;5.488;2024-02-04T12:43:50;15.07;;;6.78;;
26536;SDS011;14204;51.262;5.488;2024-02-04T12:46:17;11.48;;;6.63;;
26536;SDS011;14204;51.262;5.488;2024-02-04T12:48:43;13.80;;;7.30;;
26536;SDS011;14204;51.262;5.488;2024-02-04T12:51:09;13.85;;;8.00;;
26536;SDS011;14204;51.262;5.488;2024-02-04T12:53:36;13.50;;;7.10;;
26536;SDS011;14204;51.262;5.488;2024-02-04T12:56:03;12.43;;;7.18;;
26536;SDS011;14204;51.262;5.488;2024-02-04T12:58:29;10.13;;;6.95;;
26536;SDS011;14204;51.262;5.488;2024-02-04T13:01:01;10.23;;;7.05;;
26536;SDS011;14204;51.262;5.488;2024-02-04T13:03:29;15.10;;;6.78;;
26536;SDS011;14204;51.262;5.488;2024-02-04T13:05:58;17.30;;;6.80;;
26536;SDS011;14204;51.262;5.488;2024-02-04T13:08:24;11.82;;;5.82;;
26536;SDS011;14204;51.262;5.488;2024-02-04T13:10:53;11.77;;;6.82;;
26536;SDS011;14204;51.262;5.488;2024-02-04T13:13:22;15.32;;;7.60;;
26536;SDS011;14204;51.262;5.488;2024-02-04T13:15:53;10.57;;;6.40;;
26536;SDS011;14204;51.262;5.488;2024-02-04T13:18:19;10.10;;;6.43;;
26536;SDS011;14204;51.262;5.488;2024-02-04T13:20:45;11.52;;;6.50;;
26536;SDS011;14204;51.262;5.488;2024-02-04T13:23:11;13.55;;;6.97;;
26536;SDS011;14204;51.262;5.488;2024-02-04T13:25:37;14.23;;;7.95;;
26536;SDS011;14204;51.262;5.488;2024-02-04T13:28:03;13.30;;;6.53;;
26536;SDS011;14204;51.262;5.488;2024-02-04T13:30:29;16.70;;;6.38;;
26536;SDS011;14204;51.262;5.488;2024-02-04T13:32:55;14.77;;;6.50;;
26536;SDS011;14204;51.262;5.488;2024-02-04T13:35:26;12.77;;;5.97;;
26536;SDS011;14204;51.262;5.488;2024-02-04T13:37:52;13.32;;;5.70;;
26536;SDS011;14204;51.262;5.488;2024-02-04T13:40:20;9.35;;;5.50;;
26536;SDS011;14204;51.262;5.488;2024-02-04T13:42:47;10.30;;;6.05;;
26536;SDS011;14204;51.262;5.488;2024-02-04T13:45:13;10.93;;;5.63;;
26536;SDS011;14204;51.262;5.488;2024-02-04T13:47:39;9.18;;;5.30;;
26536;SDS011;14204;51.262;5.488;2024-02-04T13:50:05;12.90;;;5.88;;
26536;SDS011;14204;51.262;5.488;2024-02-04T13:52:33;9.30;;;5.40;;
26536;SDS011;14204;51.262;5.488;2024-02-04T13:55:02;13.18;;;5.85;;
26536;SDS011;14204;51.262;5.488;2024-02-04T13:57:34;10.48;;;5.32;;
26536;SDS011;14204;51.262;5.488;2024-02-04T14:00:01;12.40;;;6.25;;
26536;SDS011;14204;51.262;5.488;2024-02-04T14:02:30;9.65;;;6.10;;
26536;SDS011;14204;51.262;5.488;2024-02-04T14:04:56;10.23;;;7.00;;
26536;SDS011;14204;51.262;5.488;2024-02-04T14:07:22;9.25;;;5.25;;
26536;SDS011;14204;51.262;5.488;2024-02-04T14:09:48;8.13;;;4.90;;
26536;SDS011;14204;51.262;5.488;2024-02-04T14:12:13;12.60;;;5.53;;
26536;SDS011;14204;51.262;5.488;2024-02-04T14:14:39;12.48;;;4.68;;
26536;SDS011;14204;51.262;5.488;2024-02-04T14:17:05;8.73;;;4.43;;
26536;SDS011;14204;51.262;5.488;2024-02-04T14:19:31;8.00;;;5.05;;
26536;SDS011;14204;51.262;5.488;2024-02-04T14:21:57;6.75;;;4.50;;
26536;SDS011;14204;51.262;5.488;2024-02-04T14:24:22;12.30;;;3.92;;
26536;SDS011;14204;51.262;5.488;2024-02-04T14:26:48;8.93;;;4.47;;
26536;SDS011;14204;51.262;5.488;2024-02-04T14:29:20;9.82;;;4.70;;
26536;SDS011;14204;51.262;5.488;2024-02-04T14:31:46;9.00;;;4.30;;
26536;SDS011;14204;51.262;5.488;2024-02-04T14:34:12;9.40;;;4.70;;
26536;SDS011;14204;51.262;5.488;2024-02-04T14:36:38;10.05;;;5.18;;